Time;durP1;ratioP1;P1;durP2;ratioP2;P2;SDS_P1;SDS_P2;PMS_P1;PMS_P2;Temp;Humidity;BMP_temperature;BMP_pressure;BME280_temperature;BME280_humidity;BME280_pressure;Samples;Min_cycle;Max_cycle;Signal;HPM_P1;HPM_P2
2023/03/17 00:01:23;;;;;;;5.93;1.23;;;;;;;9.22;100.00;100726.97;5244135;28;20025;-75
2023/03/17 00:03:54;;;;;;;2.05;1.10;;;;;;;9.19;100.00;100721.94;5243940;28;20032;-75
2023/03/17 00:06:28;;;;;;;4.10;1.40;;;;;;;9.15;100.00;100719.75;5244077;28;20035;-75
2023/03/17 00:08:59;;;;;;;2.25;1.13;;;;;;;9.01;100.00;100713.16;5244213;28;20048;-75
2023/03/17 00:11:29;;;;;;;3.90;1.05;;;;;;;8.92;100.00;100725.63;5244071;28;20515;-75
2023/03/17 00:14:00;;;;;;;3.85;1.73;;;;;;;8.95;100.00;100741.38;5244037;28;20044;-75
2023/03/17 00:16:35;;;;;;;6.55;1.60;;;;;;;8.95;100.00;100725.34;5243480;28;20981;-75
2023/03/17 00:19:05;;;;;;;4.40;1.98;;;;;;;8.94;100.00;100728.19;5243910;28;20554;-75
2023/03/17 00:21:36;;;;;;;7.22;1.83;;;;;;;9.19;100.00;100726.47;5244151;28;20020;-75
2023/03/17 00:24:11;;;;;;;1.90;1.30;;;;;;;9.20;100.00;100736.16;5225926;28;20176;-73
2023/03/17 00:26:42;;;;;;;7.43;2.28;;;;;;;9.15;100.00;100728.63;5243836;28;20059;-72
2023/03/17 00:29:12;;;;;;;3.45;1.52;;;;;;;9.08;100.00;100723.03;5229144;28;20021;-73
2023/03/17 00:31:44;;;;;;;2.72;1.50;;;;;;;8.99;100.00;100715.16;5226753;28;20028;-72
2023/03/17 00:34:17;;;;;;;4.25;1.92;;;;;;;8.87;100.00;100717.25;5209413;28;20032;-73
2023/03/17 00:36:49;;;;;;;6.10;1.88;;;;;;;8.74;100.00;100716.84;5225785;28;20357;-73
2023/03/17 00:39:20;;;;;;;4.40;1.50;;;;;;;8.74;100.00;100717.69;5243920;28;20059;-72
2023/03/17 00:41:51;;;;;;;2.22;1.48;;;;;;;8.59;100.00;100716.59;5233722;28;20099;-73
2023/03/17 00:44:23;;;;;;;4.43;1.48;;;;;;;8.50;100.00;100710.34;5243925;28;20048;-73
2023/03/17 00:46:53;;;;;;;4.72;1.50;;;;;;;8.54;100.00;100710.88;5224982;28;20027;-75
2023/03/17 00:49:24;;;;;;;2.42;1.17;;;;;;;8.70;100.00;100708.28;5228244;28;20029;-75
2023/03/17 00:51:55;;;;;;;3.13;1.48;;;;;;;8.72;100.00;100706.28;5243470;28;20069;-75
2023/03/17 00:54:25;;;;;;;3.90;1.25;;;;;;;8.72;100.00;100700.09;5240158;28;20028;-75
2023/03/17 00:56:55;;;;;;;2.22;1.20;;;;;;;8.64;100.00;100708.09;5243434;28;20082;-75
2023/03/17 00:59:34;;;;;;;4.80;1.50;;;;;;;8.68;100.00;100709.44;5243434;28;20120;-75
2023/03/17 01:02:05;;;;;;;7.60;1.25;;;;;;;8.71;100.00;100711.81;5243484;28;20020;-75
2023/03/17 01:04:36;;;;;;;2.25;1.20;;;;;;;8.65;100.00;100713.28;5244067;28;20030;-74
2023/03/17 01:07:10;;;;;;;3.28;1.10;;;;;;;8.70;100.00;100710.97;5242998;28;20017;-75
2023/03/17 01:09:40;;;;;;;2.50;1.20;;;;;;;8.69;100.00;100716.50;5243659;28;20048;-75
2023/03/17 01:12:12;;;;;;;2.70;1.40;;;;;;;8.84;100.00;100712.22;5243743;28;20059;-75
2023/03/17 01:14:43;;;;;;;1.67;1.00;;;;;;;8.75;100.00;100713.19;5243289;28;20028;-75
2023/03/17 01:17:16;;;;;;;2.90;1.42;;;;;;;8.70;100.00;100708.28;5242901;28;20121;-75
2023/03/17 01:19:47;;;;;;;2.33;1.30;;;;;;;8.61;100.00;100711.06;5243499;28;20078;-75
2023/03/17 01:22:18;;;;;;;2.25;1.13;;;;;;;8.51;100.00;100705.81;5245044;28;20044;-75
2023/03/17 01:24:48;;;;;;;2.70;1.40;;;;;;;8.55;100.00;100702.69;5243771;28;20447;-75
2023/03/17 01:27:18;;;;;;;3.15;1.48;;;;;;;8.60;100.00;100704.06;5248100;28;20037;-75
2023/03/17 01:30:05;;;;;;;3.33;1.60;;;;;;;8.64;100.00;100700.06;5242954;28;20056;-75
2023/03/17 01:32:36;;;;;;;4.38;1.25;;;;;;;8.78;100.00;100686.09;5243666;28;20029;-75
2023/03/17 01:35:06;;;;;;;2.70;1.30;;;;;;;8.84;100.00;100677.47;5243357;28;20070;-75
2023/03/17 01:37:37;;;;;;;5.03;1.35;;;;;;;8.86;100.00;100675.44;5242278;28;20388;-75
2023/03/17 01:40:14;;;;;;;3.78;1.50;;;;;;;8.91;100.00;100677.66;5241290;28;20029;-75
2023/03/17 01:43:04;;;;;;;2.90;1.17;;;;;;;8.92;100.00;100674.81;5236321;28;20028;-75
2023/03/17 01:46:12;;;;;;;3.80;1.40;;;;;;;8.88;100.00;100673.44;5243891;28;20031;-75
2023/03/17 01:48:50;;;;;;;2.95;1.25;;;;;;;8.89;100.00;100675.16;5229713;28;20488;-75
2023/03/17 01:51:43;;;;;;;4.53;1.35;;;;;;;8.86;100.00;100666.59;5243708;28;20396;-75
2023/03/17 01:54:21;;;;;;;1.95;1.35;;;;;;;8.79;100.00;100663.72;5242933;28;20039;-75
2023/03/17 01:56:56;;;;;;;4.65;1.50;;;;;;;8.72;100.00;100668.84;5246830;28;20017;-74
2023/03/17 01:59:32;;;;;;;2.78;1.38;;;;;;;8.63;100.00;100660.94;5246627;28;20032;-75
2023/03/17 02:02:07;;;;;;;3.03;1.10;;;;;;;8.46;100.00;100668.84;5247619;28;20025;-75
2023/03/17 02:04:39;;;;;;;2.53;1.40;;;;;;;8.39;100.00;100659.81;5249071;28;20035;-74
2023/03/17 02:07:11;;;;;;;2.40;1.42;;;;;;;8.35;100.00;100660.25;5229290;28;20719;-75
2023/03/17 02:09:41;;;;;;;3.22;1.38;;;;;;;8.27;100.00;100652.97;5247014;28;20033;-75
2023/03/17 02:12:14;;;;;;;5.32;1.20;;;;;;;8.20;100.00;100649.25;5229201;28;20028;-74
2023/03/17 02:14:45;;;;;;;2.65;1.33;;;;;;;8.15;100.00;100648.91;5247366;28;20051;-75
2023/03/17 02:17:17;;;;;;;1.88;1.02;;;;;;;8.29;100.00;100643.81;5246089;28;20550;-75
2023/03/17 02:19:49;;;;;;;2.17;1.15;;;;;;;8.30;100.00;100642.00;5246858;28;20028;-75
2023/03/17 02:22:19;;;;;;;3.55;1.40;;;;;;;8.31;100.00;100643.66;5246965;28;20048;-75
2023/03/17 02:24:54;;;;;;;4.82;1.45;;;;;;;8.38;100.00;100623.34;5247156;28;20055;-75
2023/03/17 02:27:32;;;;;;;2.95;1.33;;;;;;;8.34;100.00;100626.50;5246714;28;20026;-75
2023/03/17 02:30:05;;;;;;;3.03;1.42;;;;;;;8.50;100.00;100626.63;5246708;28;20078;-75
2023/03/17 02:32:36;;;;;;;2.30;1.08;;;;;;;8.51;100.00;100630.97;5247178;28;20030;-75
2023/03/17 02:35:08;;;;;;;2.05;1.20;;;;;;;8.46;100.00;100630.59;5246880;28;20480;-75
2023/03/17 02:37:38;;;;;;;2.67;0.90;;;;;;;8.40;100.00;100621.38;5246531;28;20028;-74
2023/03/17 02:40:10;;;;;;;2.90;1.40;;;;;;;8.34;100.00;100630.00;5244474;28;20035;-75
2023/03/17 02:42:41;;;;;;;2.05;1.40;;;;;;;8.29;100.00;100625.13;5239391;28;20032;-75
2023/03/17 02:45:13;;;;;;;4.40;1.20;;;;;;;8.28;100.00;100633.28;5246714;28;20481;-75
2023/03/17 02:47:44;;;;;;;2.85;1.20;;;;;;;8.23;100.00;100631.09;5238944;28;20032;-75
2023/03/17 02:50:20;;;;;;;2.65;1.55;;;;;;;8.24;100.00;100635.44;5231333;28;20492;-75
2023/03/17 02:52:50;;;;;;;5.82;1.27;;;;;;;8.24;100.00;100639.94;5242358;28;20914;-75
2023/03/17 02:55:21;;;;;;;1.95;1.15;;;;;;;8.21;100.00;100648.25;5246465;28;20028;-75
2023/03/17 02:57:52;;;;;;;4.03;1.25;;;;;;;8.19;100.00;100651.09;5245565;28;20103;-75
2023/03/17 03:00:23;;;;;;;7.47;2.88;;;;;;;8.18;100.00;100648.56;5246186;28;20048;-75
2023/03/17 03:02:53;;;;;;;2.88;1.33;;;;;;;8.25;100.00;100647.81;5228823;28;20028;-75
2023/03/17 03:05:24;;;;;;;2.60;1.35;;;;;;;8.36;100.00;100652.09;5246313;28;20028;-76
2023/03/17 03:07:54;;;;;;;4.53;1.27;;;;;;;8.31;100.00;100647.16;5246062;28;20047;-75
2023/03/17 03:10:25;;;;;;;2.13;1.30;;;;;;;8.21;100.00;100649.09;5245927;28;20032;-75
2023/03/17 03:12:56;;;;;;;3.13;1.38;;;;;;;8.14;100.00;100647.22;5246658;28;20020;-75
2023/03/17 03:15:26;;;;;;;2.45;1.20;;;;;;;8.09;100.00;100661.03;5245970;28;20125;-75
2023/03/17 03:17:57;;;;;;;1.52;1.02;;;;;;;8.11;100.00;100661.72;5245912;28;20389;-75
2023/03/17 03:20:28;;;;;;;2.03;1.10;;;;;;;8.12;100.00;100654.53;5245840;28;20025;-75
2023/03/17 03:22:59;;;;;;;2.80;1.30;;;;;;;8.12;100.00;100662.56;5246031;28;20520;-75
2023/03/17 03:25:29;;;;;;;3.50;1.25;;;;;;;8.09;100.00;100654.88;5227688;28;20016;-75
2023/03/17 03:28:00;;;;;;;3.63;1.33;;;;;;;8.07;100.00;100659.50;5245150;28;20020;-74
2023/03/17 03:30:30;;;;;;;3.97;1.27;;;;;;;8.03;100.00;100670.53;5245404;28;20090;-75
2023/03/17 03:33:00;;;;;;;3.13;1.08;;;;;;;7.94;100.00;100679.44;5245940;28;20025;-75
2023/03/17 03:35:31;;;;;;;2.50;1.20;;;;;;;7.84;100.00;100678.69;5245257;28;20549;-75
2023/03/17 03:38:01;;;;;;;4.45;1.10;;;;;;;7.83;100.00;100671.69;5245147;28;20020;-75
2023/03/17 03:40:33;;;;;;;2.40;1.17;;;;;;;7.80;100.00;100671.97;5240113;28;20501;-75
2023/03/17 03:43:04;;;;;;;2.55;1.17;;;;;;;7.82;100.00;100677.16;5240206;28;20032;-75
2023/03/17 03:45:34;;;;;;;3.58;1.30;;;;;;;7.79;100.00;100680.97;5245518;28;20028;-75
2023/03/17 03:48:05;;;;;;;3.28;1.30;;;;;;;7.78;100.00;100671.25;5234492;28;20367;-75
2023/03/17 03:50:36;;;;;;;4.07;1.65;;;;;;;7.81;100.00;100675.47;5235776;28;20574;-75
2023/03/17 03:53:06;;;;;;;5.07;1.35;;;;;;;7.78;100.00;100674.81;5241657;28;20021;-75
2023/03/17 03:55:37;;;;;;;5.93;1.30;;;;;;;7.79;100.00;100678.31;5245394;28;20099;-75
2023/03/17 03:58:07;;;;;;;5.45;1.55;;;;;;;7.76;100.00;100674.09;5226871;28;20108;-75
2023/03/17 04:00:38;;;;;;;3.47;1.30;;;;;;;7.73;100.00;100671.75;5244843;28;20027;-75
2023/03/17 04:03:08;;;;;;;1.85;1.20;;;;;;;7.78;100.00;100687.28;5245271;28;20024;-75
2023/03/17 04:05:39;;;;;;;2.55;1.05;;;;;;;7.81;100.00;100681.66;5244607;28;20107;-75
2023/03/17 04:08:10;;;;;;;2.45;1.20;;;;;;;7.78;100.00;100680.16;5243966;28;20023;-75
2023/03/17 04:10:41;;;;;;;4.50;1.45;;;;;;;7.79;100.00;100675.63;5244680;28;20051;-74
2023/03/17 04:13:12;;;;;;;3.80;1.40;;;;;;;7.75;100.00;100676.94;5245256;28;20437;-75
2023/03/17 04:15:43;;;;;;;2.88;1.38;;;;;;;7.72;100.00;100674.56;5244770;28;20610;-75
2023/03/17 04:18:13;;;;;;;2.75;1.10;;;;;;;7.68;100.00;100670.50;5226104;28;20062;-75
2023/03/17 04:20:44;;;;;;;2.35;1.30;;;;;;;7.61;100.00;100670.28;5244823;28;20034;-75
2023/03/17 04:23:15;;;;;;;6.05;1.35;;;;;;;7.57;100.00;100673.41;5244804;28;20029;-75
2023/03/17 04:25:45;;;;;;;4.45;1.38;;;;;;;7.53;100.00;100671.03;5244807;28;20100;-75
2023/03/17 04:28:16;;;;;;;2.42;1.40;;;;;;;7.48;100.00;100662.66;5244072;28;20075;-75
2023/03/17 04:30:47;;;;;;;3.75;1.58;;;;;;;7.47;100.00;100673.47;5226713;28;20074;-75
2023/03/17 04:33:19;;;;;;;4.55;1.20;;;;;;;7.44;100.00;100671.94;5245022;28;20030;-74
2023/03/17 04:35:49;;;;;;;3.22;1.30;;;;;;;7.40;100.00;100678.56;5244782;28;20564;-75
2023/03/17 04:38:20;;;;;;;3.47;1.48;;;;;;;7.36;100.00;100671.84;5244100;28;20100;-75
2023/03/17 04:40:50;;;;;;;3.72;1.40;;;;;;;7.32;100.00;100672.28;5237016;28;20109;-75
2023/03/17 04:43:21;;;;;;;2.92;1.35;;;;;;;7.31;100.00;100676.78;5241927;28;20552;-75
2023/03/17 04:45:51;;;;;;;4.40;1.80;;;;;;;7.27;100.00;100678.91;5244956;28;20376;-75
2023/03/17 04:48:22;;;;;;;2.97;1.17;;;;;;;7.23;100.00;100682.03;5233602;28;20045;-75
2023/03/17 04:50:52;;;;;;;4.32;1.30;;;;;;;7.14;100.00;100686.44;5244150;28;20111;-75
2023/03/17 04:53:23;;;;;;;6.80;2.20;;;;;;;7.08;100.00;100687.03;5222891;28;20054;-75
2023/03/17 04:55:54;;;;;;;3.40;1.80;;;;;;;7.04;100.00;100679.47;5226408;28;20099;-75
2023/03/17 04:58:24;;;;;;;5.15;1.17;;;;;;;7.07;100.00;100693.34;5225999;28;20035;-75
2023/03/17 05:00:55;;;;;;;2.35;1.10;;;;;;;7.18;100.00;100687.00;5244021;28;20028;-75
2023/03/17 05:03:26;;;;;;;3.38;1.52;;;;;;;7.24;100.00;100678.38;5244419;28;20480;-75
2023/03/17 05:05:58;;;;;;;2.47;1.13;;;;;;;7.29;100.00;100669.94;5243933;28;20054;-75
2023/03/17 05:08:28;;;;;;;5.78;1.50;;;;;;;7.30;100.00;100664.44;5243853;28;20017;-75
2023/03/17 05:11:00;;;;;;;3.50;1.15;;;;;;;7.33;100.00;100669.50;5226049;28;20025;-75
2023/03/17 05:13:30;;;;;;;3.38;1.48;;;;;;;7.40;100.00;100670.56;5244286;28;20138;-75
2023/03/17 05:16:01;;;;;;;2.35;1.17;;;;;;;7.38;100.00;100669.00;5244105;28;20043;-75
2023/03/17 05:18:31;;;;;;;3.58;2.03;;;;;;;7.40;100.00;100659.03;5243358;28;20429;-75
2023/03/17 05:21:03;;;;;;;6.57;1.63;;;;;;;7.42;100.00;100671.22;5247187;28;20055;-75
2023/03/17 05:23:34;;;;;;;3.67;1.40;;;;;;;7.40;100.00;100669.72;5248071;28;20028;-75
2023/03/17 05:26:05;;;;;;;7.97;1.60;;;;;;;7.35;100.00;100661.31;5248427;28;20031;-75
2023/03/17 05:28:36;;;;;;;3.03;1.27;;;;;;;7.29;100.00;100665.44;5230045;28;20027;-75
2023/03/17 05:31:07;;;;;;;3.72;1.20;;;;;;;7.26;100.00;100665.72;5247697;28;20028;-75
2023/03/17 05:33:38;;;;;;;3.25;1.27;;;;;;;7.22;100.00;100667.84;5230276;28;20035;-75
2023/03/17 05:36:08;;;;;;;3.47;1.27;;;;;;;7.25;100.00;100664.88;5248004;28;20072;-75
2023/03/17 05:38:39;;;;;;;4.32;1.25;;;;;;;7.31;100.00;100666.13;5247406;28;20017;-74
2023/03/17 05:41:09;;;;;;;3.45;1.42;;;;;;;7.32;100.00;100673.13;5238066;28;20505;-75
2023/03/17 05:43:40;;;;;;;6.18;1.77;;;;;;;7.33;100.00;100680.16;5228263;28;20629;-75
2023/03/17 05:46:11;;;;;;;4.68;1.60;;;;;;;7.29;100.00;100681.44;5247966;28;20103;-75
2023/03/17 05:48:41;;;;;;;2.95;1.27;;;;;;;7.22;100.00;100675.84;5240888;28;20013;-75
2023/03/17 05:51:12;;;;;;;5.00;1.65;;;;;;;7.24;100.00;100675.72;5229429;28;20516;-75
2023/03/17 05:53:42;;;;;;;4.60;1.50;;;;;;;7.19;100.00;100686.00;5243908;28;20022;-75
2023/03/17 05:56:13;;;;;;;5.00;1.50;;;;;;;7.10;100.00;100678.88;5247379;28;20378;-75
2023/03/17 05:58:43;;;;;;;4.40;1.42;;;;;;;7.00;100.00;100674.41;5229368;28;20104;-74
2023/03/17 06:01:14;;;;;;;6.47;1.73;;;;;;;7.05;100.00;100667.81;5247165;28;20077;-74
2023/03/17 06:03:44;;;;;;;4.97;1.38;;;;;;;7.07;100.00;100668.47;5247626;28;20029;-77
2023/03/17 06:06:15;;;;;;;9.35;1.50;;;;;;;7.11;100.00;100667.22;5247171;28;20063;-76
2023/03/17 06:08:45;;;;;;;3.10;1.25;;;;;;;7.19;100.00;100659.31;5218969;28;20052;-76
2023/03/17 06:11:18;;;;;;;7.30;1.42;;;;;;;7.31;100.00;100665.28;5235758;28;20024;-76
2023/03/17 06:13:49;;;;;;;12.52;2.25;;;;;;;7.38;100.00;100659.22;5246187;28;20021;-76
2023/03/17 06:16:19;;;;;;;2.83;1.52;;;;;;;7.45;100.00;100670.09;5246187;28;20123;-77
2023/03/17 06:18:50;;;;;;;3.10;1.42;;;;;;;7.47;100.00;100678.78;5244504;28;20020;-76
2023/03/17 06:21:21;;;;;;;5.05;1.65;;;;;;;7.45;100.00;100684.28;5228074;28;20039;-76
2023/03/17 06:23:51;;;;;;;7.35;1.80;;;;;;;7.46;100.00;100677.97;5245768;28;20442;-77
2023/03/17 06:26:21;;;;;;;6.72;1.65;;;;;;;7.52;100.00;100677.34;5227593;28;20047;-76
2023/03/17 06:28:52;;;;;;;4.40;1.50;;;;;;;7.62;100.00;100671.94;5227115;28;20103;-77
2023/03/17 06:31:22;;;;;;;3.92;1.38;;;;;;;7.69;100.00;100677.53;5244263;28;20032;-76
2023/03/17 06:33:53;;;;;;;3.05;1.42;;;;;;;7.72;100.00;100675.38;5245654;28;20021;-77
2023/03/17 06:36:23;;;;;;;5.20;1.98;;;;;;;7.75;100.00;100685.78;5227725;28;20089;-76
2023/03/17 06:38:54;;;;;;;6.00;1.75;;;;;;;7.87;100.00;100678.38;5245087;28;20081;-77
2023/03/17 06:41:25;;;;;;;4.50;1.63;;;;;;;8.01;100.00;100668.97;5208867;28;20043;-76
2023/03/17 06:43:55;;;;;;;2.65;1.40;;;;;;;8.12;100.00;100663.38;5227495;28;20434;-76
2023/03/17 06:46:26;;;;;;;4.25;1.52;;;;;;;8.23;100.00;100663.16;5227399;28;20080;-82
2023/03/17 06:48:57;;;;;;;6.22;1.85;;;;;;;8.32;100.00;100662.22;5231776;28;20024;-76
2023/03/17 06:51:29;;;;;;;4.28;1.60;;;;;;;8.38;100.00;100655.41;5244547;28;20032;-77
2023/03/17 06:53:59;;;;;;;4.90;1.63;;;;;;;8.45;100.00;100650.31;5243719;28;20032;-78
2023/03/17 06:56:30;;;;;;;4.13;1.85;;;;;;;8.48;100.00;100653.53;5226880;28;20551;-76
2023/03/17 06:59:00;;;;;;;4.45;1.75;;;;;;;8.49;100.00;100657.03;5245112;28;20028;-76
2023/03/17 07:01:31;;;;;;;3.95;2.20;;;;;;;8.54;100.00;100647.53;5244816;28;20408;-76
2023/03/17 07:04:01;;;;;;;3.92;2.13;;;;;;;8.59;100.00;100639.03;5244910;28;20484;-76
2023/03/17 07:06:32;;;;;;;4.60;1.77;;;;;;;8.63;100.00;100643.06;5244612;28;20645;-78
2023/03/17 07:09:03;;;;;;;6.78;1.85;;;;;;;8.69;100.00;100645.13;5200585;28;20024;-77
2023/03/17 07:11:33;;;;;;;5.60;2.30;;;;;;;8.75;100.00;100654.34;5226871;28;20020;-77
2023/03/17 07:14:05;;;;;;;6.35;1.90;;;;;;;8.90;100.00;100655.41;5227256;28;20481;-78
2023/03/17 07:16:36;;;;;;;4.63;1.80;;;;;;;9.03;100.00;100665.66;5244339;28;20104;-78
2023/03/17 07:19:07;;;;;;;7.15;1.77;;;;;;;9.11;100.00;100671.06;5213881;28;20103;-77
2023/03/17 07:21:37;;;;;;;9.95;2.10;;;;;;;9.21;100.00;100666.41;5244362;28;20035;-77
2023/03/17 07:24:10;;;;;;;3.58;2.05;;;;;;;9.28;100.00;100663.91;5216974;28;20121;-77
2023/03/17 07:26:40;;;;;;;6.45;2.05;;;;;;;9.36;100.00;100663.94;5218884;28;20052;-77
2023/03/17 07:29:11;;;;;;;6.97;2.42;;;;;;;9.45;100.00;100672.84;5244296;28;20059;-77
2023/03/17 07:31:42;;;;;;;4.65;1.50;;;;;;;9.54;100.00;100670.03;5244022;28;20043;-76
2023/03/17 07:34:13;;;;;;;6.05;2.00;;;;;;;9.70;100.00;100660.34;5244354;28;20028;-77
2023/03/17 07:36:43;;;;;;;5.88;1.73;;;;;;;9.78;100.00;100668.38;5225895;28;20025;-77
2023/03/17 07:39:14;;;;;;;8.13;1.80;;;;;;;9.89;100.00;100669.91;5243835;28;20047;-77
2023/03/17 07:41:47;;;;;;;6.18;1.83;;;;;;;10.08;100.00;100686.50;5241367;28;20900;-77
2023/03/17 07:44:18;;;;;;;7.53;2.22;;;;;;;10.24;100.00;100688.41;5225314;28;20028;-77
2023/03/17 07:46:50;;;;;;;6.05;2.00;;;;;;;10.37;100.00;100687.88;5209476;28;20419;-77
2023/03/17 07:49:21;;;;;;;6.30;1.95;;;;;;;10.50;100.00;100679.34;5215899;28;20047;-77
2023/03/17 07:51:51;;;;;;;6.63;1.95;;;;;;;10.62;100.00;100656.50;5243603;28;20028;-76
2023/03/17 07:54:23;;;;;;;6.22;2.25;;;;;;;10.85;100.00;100651.25;5223261;28;20089;-77
2023/03/17 07:56:54;;;;;;;4.90;1.77;;;;;;;11.05;100.00;100654.38;5217971;28;20099;-77
2023/03/17 07:59:26;;;;;;;4.63;1.60;;;;;;;11.32;100.00;100653.06;5222214;28;20032;-77
2023/03/17 08:01:58;;;;;;;6.18;2.42;;;;;;;11.44;100.00;100651.63;5218855;28;20397;-77
2023/03/17 08:04:29;;;;;;;5.60;1.98;;;;;;;11.48;100.00;100655.66;5224464;28;20448;-77
2023/03/17 08:07:00;;;;;;;7.72;2.38;;;;;;;11.53;100.00;100644.38;5244013;28;20016;-77
2023/03/17 08:09:31;;;;;;;5.97;1.80;;;;;;;11.63;100.00;100645.81;5218493;28;20035;-77
2023/03/17 08:12:03;;;;;;;4.47;2.03;;;;;;;11.67;100.00;100665.94;5228133;28;20024;-77
2023/03/17 08:14:34;;;;;;;8.82;2.00;;;;;;;11.90;100.00;100657.09;5244621;28;20484;-77
2023/03/17 08:17:05;;;;;;;6.55;2.25;;;;;;;12.06;100.00;100665.03;5243735;28;20081;-77
2023/03/17 08:19:35;;;;;;;2.78;1.50;;;;;;;12.18;100.00;100666.25;5243304;28;20036;-77
2023/03/17 08:22:06;;;;;;;10.73;2.40;;;;;;;12.39;100.00;100679.03;5226280;28;20025;-77
2023/03/17 08:24:38;;;;;;;7.40;2.75;;;;;;;12.61;100.00;100673.78;5243987;28;20016;-77
2023/03/17 08:27:09;;;;;;;7.07;2.78;;;;;;;12.49;100.00;100659.09;5225478;28;20021;-78
2023/03/17 08:29:39;;;;;;;7.43;2.33;;;;;;;12.66;100.00;100639.09;5243682;28;20069;-77
2023/03/17 08:32:10;;;;;;;4.90;2.05;;;;;;;12.67;100.00;100648.81;5225676;28;20039;-77
2023/03/17 08:34:43;;;;;;;7.25;2.55;;;;;;;12.75;100.00;100639.81;5226459;28;20085;-77
2023/03/17 08:37:13;;;;;;;4.07;2.05;;;;;;;12.60;100.00;100646.06;5243422;28;20020;-78
2023/03/17 08:39:44;;;;;;;7.15;2.47;;;;;;;12.52;100.00;100656.88;5212553;28;20028;-77
2023/03/17 08:42:15;;;;;;;6.22;1.90;;;;;;;12.33;100.00;100668.16;5216501;28;20029;-77
2023/03/17 08:44:46;;;;;;;7.25;2.50;;;;;;;12.26;100.00;100664.53;5213241;28;20138;-77
2023/03/17 08:47:17;;;;;;;11.63;2.22;;;;;;;12.13;100.00;100649.84;5242940;28;20476;-77
2023/03/17 08:49:48;;;;;;;6.57;2.05;;;;;;;12.15;100.00;100647.81;5220486;28;20016;-77
2023/03/17 08:52:19;;;;;;;5.18;1.98;;;;;;;12.14;100.00;100642.59;5216086;28;20029;-77
2023/03/17 08:54:49;;;;;;;8.20;2.40;;;;;;;12.17;100.00;100645.78;5242608;28;20096;-76
2023/03/17 08:57:21;;;;;;;6.60;2.05;;;;;;;12.26;100.00;100632.25;5224456;28;20086;-77
2023/03/17 08:59:52;;;;;;;7.03;1.98;;;;;;;12.40;100.00;100634.16;5215244;28;20082;-77
2023/03/17 09:02:22;;;;;;;7.43;2.47;;;;;;;12.56;100.00;100639.34;5243374;28;20475;-77
2023/03/17 09:04:53;;;;;;;4.78;1.98;;;;;;;12.77;100.00;100649.38;5208806;28;20354;-77
2023/03/17 09:07:23;;;;;;;5.82;1.80;;;;;;;12.95;100.00;100671.41;5224942;28;20029;-77
2023/03/17 09:09:54;;;;;;;7.10;2.00;;;;;;;13.08;100.00;100670.72;5224346;28;20036;-77
2023/03/17 09:12:25;;;;;;;9.70;2.05;;;;;;;13.00;100.00;100654.66;5224985;28;20024;-77
2023/03/17 09:14:56;;;;;;;5.13;1.88;;;;;;;12.81;100.00;100648.00;5225301;28;20024;-77
2023/03/17 09:17:27;;;;;;;6.22;1.77;;;;;;;12.83;100.00;100640.56;5242427;28;20476;-77
2023/03/17 09:19:58;;;;;;;7.90;2.28;;;;;;;12.92;100.00;100670.94;5224567;28;20028;-77
2023/03/17 09:22:29;;;;;;;5.68;2.20;;;;;;;12.90;100.00;100681.03;5221242;28;20031;-77
2023/03/17 09:24:59;;;;;;;4.15;2.13;;;;;;;12.86;100.00;100666.28;5242866;28;20025;-77
2023/03/17 09:27:30;;;;;;;6.75;2.53;;;;;;;12.82;100.00;100665.81;5222184;28;20428;-77
2023/03/17 09:30:00;;;;;;;7.05;2.28;;;;;;;12.88;100.00;100675.84;5242462;28;20021;-77
2023/03/17 09:32:31;;;;;;;5.78;2.00;;;;;;;12.93;100.00;100692.28;5223852;28;20032;-77
2023/03/17 09:35:02;;;;;;;4.70;2.08;;;;;;;13.00;100.00;100711.22;5242398;28;20017;-77
2023/03/17 09:37:33;;;;;;;8.25;2.20;;;;;;;13.00;100.00;100729.22;5224368;28;20071;-77
2023/03/17 09:40:07;;;;;;;7.32;2.10;;;;;;;13.03;100.00;100737.78;5210813;28;20540;-77
2023/03/17 09:43:08;;;;;;;6.47;2.22;;;;;;;13.00;100.00;100740.84;5217374;28;20089;-77
2023/03/17 09:45:40;;;;;;;6.25;2.10;;;;;;;12.98;100.00;100729.41;5233084;28;20749;-77
2023/03/17 09:48:22;;;;;;;5.43;2.00;;;;;;;13.12;100.00;100720.50;5206680;28;20017;-77
2023/03/17 09:51:13;;;;;;;9.27;2.30;;;;;;;13.21;100.00;100722.13;5235927;28;20093;-77
2023/03/17 09:53:53;;;;;;;6.78;2.60;;;;;;;13.31;100.00;100708.38;5224864;28;20547;-77
2023/03/17 09:56:26;;;;;;;7.13;2.45;;;;;;;13.45;100.00;100712.06;5241154;28;20028;-77
2023/03/17 09:59:04;;;;;;;6.38;1.83;;;;;;;13.63;100.00;100687.41;5242075;28;20020;-77
2023/03/17 10:01:40;;;;;;;6.88;2.45;;;;;;;13.79;100.00;100684.47;5242224;28;20085;-77
2023/03/17 10:04:11;;;;;;;4.72;1.98;;;;;;;13.88;100.00;100690.56;5224341;28;20016;-77
2023/03/17 10:06:45;;;;;;;14.38;3.78;;;;;;;13.86;100.00;100693.47;5225536;28;20016;-77
2023/03/17 10:09:25;;;;;;;6.47;3.00;;;;;;;14.02;100.00;100700.47;5245535;28;20070;-77
2023/03/17 10:12:09;;;;;;;4.80;2.38;;;;;;;14.17;100.00;100703.94;5228760;28;20400;-77
2023/03/17 10:14:46;;;;;;;5.88;2.20;;;;;;;14.18;100.00;100702.91;5246849;28;20024;-77
2023/03/17 10:17:21;;;;;;;10.00;3.22;;;;;;;14.55;100.00;100700.97;5220136;28;20012;-77
2023/03/17 10:20:10;;;;;;;10.65;4.15;;;;;;;15.17;100.00;100696.59;5212980;28;20068;-77
2023/03/17 10:22:46;;;;;;;8.32;2.42;;;;;;;15.28;100.00;100698.75;5240798;28;20036;-77
2023/03/17 10:25:20;;;;;;;5.88;2.17;;;;;;;15.47;100.00;100689.88;5245823;28;20051;-77
2023/03/17 10:27:56;;;;;;;4.45;1.95;;;;;;;15.40;100.00;100682.78;5228112;28;20020;-77
2023/03/17 10:30:29;;;;;;;4.82;1.90;;;;;;;15.32;100.00;100678.38;5245892;28;20028;-78
2023/03/17 10:33:02;;;;;;;3.50;2.17;;;;;;;15.07;100.00;100694.28;5227636;28;20032;-77
2023/03/17 10:35:36;;;;;;;5.15;2.50;;;;;;;15.04;100.00;100689.25;5246680;28;20657;-77
2023/03/17 10:38:23;;;;;;;6.35;1.83;;;;;;;15.37;100.00;100683.19;5245298;28;20051;-77
2023/03/17 10:40:57;;;;;;;6.15;2.40;;;;;;;15.60;100.00;100683.69;5237655;28;20036;-78
2023/03/17 10:43:34;;;;;;;6.43;2.45;;;;;;;15.72;100.00;100683.97;5227540;28;20523;-77
2023/03/17 10:46:16;;;;;;;5.80;2.47;;;;;;;15.97;100.00;100686.94;5245991;28;20020;-77
2023/03/17 10:48:52;;;;;;;9.02;2.30;;;;;;;16.44;100.00;100687.81;5234063;28;20016;-77
2023/03/17 10:51:29;;;;;;;;;;;;;;;16.52;100.00;100679.47;5237304;28;20118;-78
2023/03/17 10:54:06;;;;;;;4.80;1.98;;;;;;;16.22;100.00;100688.00;5245004;28;19912;-77
2023/03/17 10:56:41;;;;;;;12.55;2.70;;;;;;;16.15;100.00;100684.44;5227151;28;20503;-77
2023/03/17 10:59:23;;;;;;;3.03;1.92;;;;;;;16.27;100.00;100679.28;5227683;28;20028;-77
2023/03/17 11:01:58;;;;;;;9.85;2.25;;;;;;;16.35;100.00;100683.63;5227221;28;20035;-77
2023/03/17 11:04:48;;;;;;;6.30;1.98;;;;;;;16.21;100.00;100680.09;5226850;28;20027;-77
2023/03/17 11:07:25;;;;;;;6.68;2.25;;;;;;;16.42;100.00;100666.38;5226908;28;20033;-77
2023/03/17 11:10:01;;;;;;;5.88;2.28;;;;;;;16.64;100.00;100663.41;5244795;28;20119;-77
2023/03/17 11:12:53;;;;;;;6.43;2.60;;;;;;;16.91;100.00;100666.94;5244520;28;20048;-77
2023/03/17 11:15:32;;;;;;;7.03;2.40;;;;;;;17.16;100.00;100661.66;5245929;28;20062;-77
2023/03/17 11:18:13;;;;;;;5.35;2.50;;;;;;;16.94;100.00;100663.81;5223135;28;20095;-77
2023/03/17 11:20:49;;;;;;;4.70;2.25;;;;;;;17.11;100.00;100658.75;5245914;28;20545;-77
2023/03/17 11:24:10;;;;;;;8.38;3.00;;;;;;;17.22;100.00;100661.66;5237746;28;20035;-77
2023/03/17 11:27:04;;;;;;;5.78;2.58;;;;;;;17.24;100.00;100645.16;5225052;28;20020;-78
2023/03/17 11:29:41;;;;;;;8.98;1.90;;;;;;;17.34;100.00;100642.81;5227666;28;20028;-78
2023/03/17 11:32:42;;;;;;;6.65;2.20;;;;;;;17.30;100.00;100653.25;5245890;28;20067;-78
2023/03/17 11:35:20;;;;;;;6.75;2.65;;;;;;;17.29;100.00;100643.47;5245266;28;20028;-78
2023/03/17 11:38:03;;;;;;;6.78;2.38;;;;;;;17.33;100.00;100643.88;5227139;28;20048;-78
2023/03/17 11:40:44;;;;;;;5.65;2.22;;;;;;;17.55;100.00;100649.81;5243232;28;20040;-78
2023/03/17 11:43:45;;;;;;;10.07;2.10;;;;;;;17.63;100.00;100644.13;5228036;28;20024;-78
2023/03/17 11:46:41;;;;;;;6.53;2.38;;;;;;;17.58;100.00;100647.50;5228113;28;20504;-78
2023/03/17 11:49:21;;;;;;;10.23;2.70;;;;;;;17.65;100.00;100644.75;5218168;28;20035;-78